sensor_id;sensor_type;location;lat;lon;timestamp;pressure;altitude;pressure_sealevel;temperature;humidity
77381;BME280;66439;50.106;10.996;2023-12-20T00:00:22;98536.77;;;6.84;71.16
77381;BME280;66439;50.106;10.996;2023-12-20T00:02:44;98535.32;;;6.87;71.20
77381;BME280;66439;50.106;10.996;2023-12-20T00:04:49;98527.73;;;6.87;71.30
77381;BME280;66439;50.106;10.996;2023-12-20T00:06:52;98524.66;;;6.87;71.35
77381;BME280;66439;50.106;10.996;2023-12-20T00:08:55;98528.79;;;6.87;71.44
77381;BME280;66439;50.106;10.996;2023-12-20T00:10:58;98522.85;;;6.86;71.45
77381;BME280;66439;50.106;10.996;2023-12-20T00:13:00;98521.05;;;6.85;71.41
77381;BME280;66439;50.106;10.996;2023-12-20T00:15:04;98518.98;;;6.82;71.47
77381;BME280;66439;50.106;10.996;2023-12-20T00:17:06;98517.45;;;6.80;71.43
77381;BME280;66439;50.106;10.996;2023-12-20T00:19:10;98512.24;;;6.78;71.63
77381;BME280;66439;50.106;10.996;2023-12-20T00:21:13;98508.48;;;6.75;71.72
77381;BME280;66439;50.106;10.996;2023-12-20T00:23:15;98508.89;;;6.76;71.62
77381;BME280;66439;50.106;10.996;2023-12-20T00:25:18;98507.67;;;6.78;71.63
77381;BME280;66439;50.106;10.996;2023-12-20T00:27:21;98507.64;;;6.80;71.65
77381;BME280;66439;50.106;10.996;2023-12-20T00:29:24;98506.75;;;6.83;71.74
77381;BME280;66439;50.106;10.996;2023-12-20T00:31:29;98508.98;;;6.88;71.96
77381;BME280;66439;50.106;10.996;2023-12-20T00:33:32;98510.73;;;6.91;71.80
77381;BME280;66439;50.106;10.996;2023-12-20T00:35:34;98511.66;;;6.94;71.89
77381;BME280;66439;50.106;10.996;2023-12-20T00:37:37;98513.44;;;6.95;71.81
77381;BME280;66439;50.106;10.996;2023-12-20T00:39:39;98516.20;;;6.97;71.78
77381;BME280;66439;50.106;10.996;2023-12-20T00:41:42;98514.68;;;6.96;71.72
77381;BME280;66439;50.106;10.996;2023-12-20T00:43:45;98514.53;;;6.96;71.50
77381;BME280;66439;50.106;10.996;2023-12-20T00:45:47;98513.97;;;6.94;71.54
77381;BME280;66439;50.106;10.996;2023-12-20T00:47:50;98511.91;;;6.93;71.63
77381;BME280;66439;50.106;10.996;2023-12-20T00:49:53;98511.13;;;6.95;71.53
77381;BME280;66439;50.106;10.996;2023-12-20T00:51:56;98511.98;;;6.95;71.60
77381;BME280;66439;50.106;10.996;2023-12-20T00:53:59;98512.68;;;6.96;71.62
77381;BME280;66439;50.106;10.996;2023-12-20T00:56:01;98509.36;;;6.92;71.69
77381;BME280;66439;50.106;10.996;2023-12-20T00:58:04;98507.02;;;6.91;72.08
77381;BME280;66439;50.106;10.996;2023-12-20T01:00:08;98508.70;;;6.91;71.99
77381;BME280;66439;50.106;10.996;2023-12-20T01:02:14;98506.88;;;6.91;72.09
77381;BME280;66439;50.106;10.996;2023-12-20T01:04:17;98499.38;;;6.90;71.87
77381;BME280;66439;50.106;10.996;2023-12-20T01:06:21;98495.50;;;6.87;72.03
77381;BME280;66439;50.106;10.996;2023-12-20T01:08:23;98492.73;;;6.85;72.07
77381;BME280;66439;50.106;10.996;2023-12-20T01:10:26;98487.73;;;6.83;72.06
77381;BME280;66439;50.106;10.996;2023-12-20T01:12:31;98488.40;;;6.84;72.04
77381;BME280;66439;50.106;10.996;2023-12-20T01:14:33;98483.38;;;6.86;72.05
77381;BME280;66439;50.106;10.996;2023-12-20T01:16:36;98482.73;;;6.89;72.02
77381;BME280;66439;50.106;10.996;2023-12-20T01:18:39;98487.29;;;6.91;71.98
77381;BME280;66439;50.106;10.996;2023-12-20T01:20:42;98479.02;;;6.89;72.00
77381;BME280;66439;50.106;10.996;2023-12-20T01:22:45;98483.48;;;6.90;72.20
77381;BME280;66439;50.106;10.996;2023-12-20T01:24:48;98480.55;;;6.90;72.09
77381;BME280;66439;50.106;10.996;2023-12-20T01:26:51;98476.48;;;6.93;72.13
77381;BME280;66439;50.106;10.996;2023-12-20T01:28:53;98478.02;;;6.97;72.12
77381;BME280;66439;50.106;10.996;2023-12-20T01:30:57;98473.64;;;6.98;72.11
77381;BME280;66439;50.106;10.996;2023-12-20T01:33:00;98473.98;;;6.98;71.93
77381;BME280;66439;50.106;10.996;2023-12-20T01:35:03;98469.74;;;6.97;71.83
77381;BME280;66439;50.106;10.996;2023-12-20T01:37:06;98470.36;;;6.97;72.03
77381;BME280;66439;50.106;10.996;2023-12-20T01:39:09;98471.73;;;6.98;72.01
77381;BME280;66439;50.106;10.996;2023-12-20T01:41:26;98465.42;;;7.01;71.82
77381;BME280;66439;50.106;10.996;2023-12-20T01:43:29;98462.83;;;7.04;71.79
77381;BME280;66439;50.106;10.996;2023-12-20T01:45:39;98462.94;;;7.06;71.75
77381;BME280;66439;50.106;10.996;2023-12-20T01:47:43;98455.04;;;7.09;71.76
77381;BME280;66439;50.106;10.996;2023-12-20T01:49:46;98456.81;;;7.10;71.87
77381;BME280;66439;50.106;10.996;2023-12-20T01:51:50;98456.45;;;7.15;71.91
77381;BME280;66439;50.106;10.996;2023-12-20T01:53:54;98448.66;;;7.19;71.65
77381;BME280;66439;50.106;10.996;2023-12-20T01:55:58;98451.97;;;7.22;71.65
77381;BME280;66439;50.106;10.996;2023-12-20T01:58:01;98454.27;;;7.22;71.54
77381;BME280;66439;50.106;10.996;2023-12-20T02:00:04;98454.27;;;7.19;71.27
77381;BME280;66439;50.106;10.996;2023-12-20T02:02:07;98455.81;;;7.16;71.25
77381;BME280;66439;50.106;10.996;2023-12-20T02:04:12;98452.39;;;7.12;71.54
77381;BME280;66439;50.106;10.996;2023-12-20T02:06:16;98456.79;;;7.09;71.42
77381;BME280;66439;50.106;10.996;2023-12-20T02:08:19;98458.44;;;7.08;71.43
77381;BME280;66439;50.106;10.996;2023-12-20T02:10:22;98458.80;;;7.06;71.26
77381;BME280;66439;50.106;10.996;2023-12-20T02:12:27;98455.16;;;7.04;71.18
77381;BME280;66439;50.106;10.996;2023-12-20T02:14:29;98455.08;;;7.05;71.32
77381;BME280;66439;50.106;10.996;2023-12-20T02:16:32;98451.80;;;7.10;71.60
77381;BME280;66439;50.106;10.996;2023-12-20T02:18:34;98451.57;;;7.10;71.55
77381;BME280;66439;50.106;10.996;2023-12-20T02:20:38;98447.95;;;7.11;71.37
77381;BME280;66439;50.106;10.996;2023-12-20T02:22:40;98437.86;;;7.10;71.44
77381;BME280;66439;50.106;10.996;2023-12-20T02:24:43;98432.67;;;7.11;71.48
77381;BME280;66439;50.106;10.996;2023-12-20T02:26:46;98432.23;;;7.11;71.25
77381;BME280;66439;50.106;10.996;2023-12-20T02:28:48;98430.81;;;7.11;71.33
77381;BME280;66439;50.106;10.996;2023-12-20T02:30:51;98421.70;;;7.09;71.09
77381;BME280;66439;50.106;10.996;2023-12-20T02:32:56;98428.81;;;7.07;71.03
77381;BME280;66439;50.106;10.996;2023-12-20T02:34:58;98434.86;;;7.01;70.96
77381;BME280;66439;50.106;10.996;2023-12-20T02:37:01;98431.52;;;7.00;70.93
77381;BME280;66439;50.106;10.996;2023-12-20T02:39:04;98442.77;;;6.99;71.13
77381;BME280;66439;50.106;10.996;2023-12-20T02:41:06;98440.70;;;6.96;71.06
77381;BME280;66439;50.106;10.996;2023-12-20T02:43:09;98436.25;;;6.97;71.25
77381;BME280;66439;50.106;10.996;2023-12-20T02:45:12;98435.16;;;6.97;71.31
77381;BME280;66439;50.106;10.996;2023-12-20T02:47:15;98434.41;;;6.98;71.25
77381;BME280;66439;50.106;10.996;2023-12-20T02:49:18;98437.56;;;6.99;71.36
77381;BME280;66439;50.106;10.996;2023-12-20T02:51:22;98441.90;;;7.00;71.16
77381;BME280;66439;50.106;10.996;2023-12-20T02:53:25;98440.67;;;6.97;71.01
77381;BME280;66439;50.106;10.996;2023-12-20T02:55:27;98442.90;;;6.91;70.78
77381;BME280;66439;50.106;10.996;2023-12-20T02:57:30;98443.63;;;6.84;70.97
77381;BME280;66439;50.106;10.996;2023-12-20T02:59:33;98444.52;;;6.77;70.93
77381;BME280;66439;50.106;10.996;2023-12-20T03:01:42;98444.19;;;6.76;71.13
77381;BME280;66439;50.106;10.996;2023-12-20T03:03:45;98440.82;;;6.74;71.30
77381;BME280;66439;50.106;10.996;2023-12-20T03:05:48;98443.30;;;6.76;71.29
77381;BME280;66439;50.106;10.996;2023-12-20T03:07:50;98440.91;;;6.76;71.13
77381;BME280;66439;50.106;10.996;2023-12-20T03:09:53;98443.55;;;6.76;71.09
77381;BME280;66439;50.106;10.996;2023-12-20T03:12:16;98445.45;;;6.78;71.20
77381;BME280;66439;50.106;10.996;2023-12-20T03:14:19;98445.58;;;6.79;71.14
77381;BME280;66439;50.106;10.996;2023-12-20T03:16:23;98438.52;;;6.79;71.33
77381;BME280;66439;50.106;10.996;2023-12-20T03:18:26;98439.70;;;6.81;71.32
77381;BME280;66439;50.106;10.996;2023-12-20T03:20:31;98437.55;;;6.83;71.36
77381;BME280;66439;50.106;10.996;2023-12-20T03:22:36;98445.54;;;6.88;71.39
77381;BME280;66439;50.106;10.996;2023-12-20T03:24:39;98455.18;;;6.88;71.09
77381;BME280;66439;50.106;10.996;2023-12-20T03:26:42;98457.94;;;6.85;71.03
77381;BME280;66439;50.106;10.996;2023-12-20T03:28:44;98452.77;;;6.82;71.11
77381;BME280;66439;50.106;10.996;2023-12-20T03:30:47;98452.02;;;6.83;71.21
77381;BME280;66439;50.106;10.996;2023-12-20T03:32:49;98447.76;;;6.83;70.97
77381;BME280;66439;50.106;10.996;2023-12-20T03:34:52;98451.39;;;6.84;70.95
77381;BME280;66439;50.106;10.996;2023-12-20T03:36:55;98445.11;;;6.82;71.00
77381;BME280;66439;50.106;10.996;2023-12-20T03:38:58;98448.48;;;6.85;71.12
77381;BME280;66439;50.106;10.996;2023-12-20T03:41:01;98455.61;;;6.88;71.25
77381;BME280;66439;50.106;10.996;2023-12-20T03:43:04;98452.05;;;6.89;71.30
77381;BME280;66439;50.106;10.996;2023-12-20T03:45:08;98453.49;;;6.94;71.35
77381;BME280;66439;50.106;10.996;2023-12-20T03:47:11;98451.08;;;6.97;71.10
77381;BME280;66439;50.106;10.996;2023-12-20T03:49:14;98453.20;;;6.93;70.96
77381;BME280;66439;50.106;10.996;2023-12-20T03:51:17;98450.66;;;6.94;71.08
77381;BME280;66439;50.106;10.996;2023-12-20T03:53:19;98447.33;;;6.94;71.02
77381;BME280;66439;50.106;10.996;2023-12-20T03:55:22;98449.80;;;6.92;70.96
77381;BME280;66439;50.106;10.996;2023-12-20T03:57:25;98450.50;;;6.91;70.93
77381;BME280;66439;50.106;10.996;2023-12-20T03:59:28;98455.11;;;6.89;70.76
77381;BME280;66439;50.106;10.996;2023-12-20T04:01:30;98451.40;;;6.89;71.07
77381;BME280;66439;50.106;10.996;2023-12-20T04:03:33;98448.27;;;6.92;70.95
77381;BME280;66439;50.106;10.996;2023-12-20T04:05:36;98448.50;;;6.91;70.81
77381;BME280;66439;50.106;10.996;2023-12-20T04:07:39;98447.82;;;6.91;70.86
77381;BME280;66439;50.106;10.996;2023-12-20T04:09:42;98452.44;;;6.92;70.98
77381;BME280;66439;50.106;10.996;2023-12-20T04:11:45;98451.18;;;6.94;70.90
77381;BME280;66439;50.106;10.996;2023-12-20T04:13:48;98450.39;;;6.98;71.09
77381;BME280;66439;50.106;10.996;2023-12-20T04:15:50;98451.31;;;6.99;70.80
77381;BME280;66439;50.106;10.996;2023-12-20T04:17:54;98447.35;;;6.98;70.77
77381;BME280;66439;50.106;10.996;2023-12-20T04:19:56;98448.23;;;7.00;70.74
77381;BME280;66439;50.106;10.996;2023-12-20T04:21:59;98452.95;;;7.00;70.74
77381;BME280;66439;50.106;10.996;2023-12-20T04:24:02;98462.67;;;7.00;70.62
77381;BME280;66439;50.106;10.996;2023-12-20T04:26:05;98464.05;;;6.97;70.61
77381;BME280;66439;50.106;10.996;2023-12-20T04:28:08;98467.52;;;6.96;70.67
77381;BME280;66439;50.106;10.996;2023-12-20T04:30:11;98477.28;;;6.92;70.38
77381;BME280;66439;50.106;10.996;2023-12-20T04:32:12;98477.15;;;6.90;70.51
77381;BME280;66439;50.106;10.996;2023-12-20T04:34:15;98466.71;;;6.91;70.72
77381;BME280;66439;50.106;10.996;2023-12-20T04:36:18;98466.77;;;6.93;70.97
77381;BME280;66439;50.106;10.996;2023-12-20T04:38:20;98471.00;;;6.96;71.01
77381;BME280;66439;50.106;10.996;2023-12-20T04:40:23;98471.13;;;6.99;70.96
77381;BME280;66439;50.106;10.996;2023-12-20T04:44:57;98461.70;;;7.04;70.98
77381;BME280;66439;50.106;10.996;2023-12-20T04:47:00;98454.61;;;7.06;70.99
77381;BME280;66439;50.106;10.996;2023-12-20T04:49:02;98444.92;;;7.09;70.82
77381;BME280;66439;50.106;10.996;2023-12-20T04:51:05;98443.86;;;7.11;70.67
77381;BME280;66439;50.106;10.996;2023-12-20T04:53:09;98451.13;;;7.11;70.73
77381;BME280;66439;50.106;10.996;2023-12-20T04:55:12;98455.47;;;7.08;70.74
77381;BME280;66439;50.106;10.996;2023-12-20T04:57:14;98460.13;;;7.06;70.58
77381;BME280;66439;50.106;10.996;2023-12-20T04:59:17;98458.73;;;7.05;70.53
77381;BME280;66439;50.106;10.996;2023-12-20T05:01:19;98462.00;;;7.08;70.63
77381;BME280;66439;50.106;10.996;2023-12-20T05:03:23;98456.82;;;7.09;70.57
77381;BME280;66439;50.106;10.996;2023-12-20T05:05:26;98452.99;;;7.10;70.71
77381;BME280;66439;50.106;10.996;2023-12-20T05:07:29;98456.11;;;7.12;70.89
77381;BME280;66439;50.106;10.996;2023-12-20T05:09:31;98459.45;;;7.12;70.73
77381;BME280;66439;50.106;10.996;2023-12-20T05:11:34;98456.80;;;7.12;70.89
77381;BME280;66439;50.106;10.996;2023-12-20T05:13:36;98455.00;;;7.13;70.79
77381;BME280;66439;50.106;10.996;2023-12-20T05:15:49;98461.94;;;7.10;70.79
77381;BME280;66439;50.106;10.996;2023-12-20T05:17:52;98453.31;;;7.10;70.87
77381;BME280;66439;50.106;10.996;2023-12-20T05:19:54;98451.17;;;7.09;70.74
77381;BME280;66439;50.106;10.996;2023-12-20T05:21:58;98451.66;;;7.06;70.56
77381;BME280;66439;50.106;10.996;2023-12-20T05:24:01;98458.20;;;7.02;70.72
77381;BME280;66439;50.106;10.996;2023-12-20T05:26:03;98456.77;;;6.96;70.65
77381;BME280;66439;50.106;10.996;2023-12-20T05:28:06;98460.20;;;6.92;70.83
77381;BME280;66439;50.106;10.996;2023-12-20T05:30:09;98461.08;;;6.92;70.91
77381;BME280;66439;50.106;10.996;2023-12-20T05:32:12;98470.80;;;6.94;71.00
77381;BME280;66439;50.106;10.996;2023-12-20T05:34:15;98473.13;;;6.93;70.88
77381;BME280;66439;50.106;10.996;2023-12-20T05:36:18;98472.77;;;6.92;71.05
77381;BME280;66439;50.106;10.996;2023-12-20T05:38:20;98477.08;;;6.89;71.21
77381;BME280;66439;50.106;10.996;2023-12-20T05:40:23;98476.80;;;6.89;71.16
77381;BME280;66439;50.106;10.996;2023-12-20T05:42:26;98480.65;;;6.87;71.26
77381;BME280;66439;50.106;10.996;2023-12-20T05:44:29;98484.59;;;6.85;71.33
77381;BME280;66439;50.106;10.996;2023-12-20T05:46:31;98488.23;;;6.84;71.36
77381;BME280;66439;50.106;10.996;2023-12-20T05:48:34;98491.44;;;6.80;71.13
77381;BME280;66439;50.106;10.996;2023-12-20T05:50:36;98494.08;;;6.77;71.29
77381;BME280;66439;50.106;10.996;2023-12-20T05:52:39;98489.46;;;6.74;71.41
77381;BME280;66439;50.106;10.996;2023-12-20T05:54:41;98495.23;;;6.76;71.50
77381;BME280;66439;50.106;10.996;2023-12-20T05:56:44;98497.42;;;6.75;71.35
77381;BME280;66439;50.106;10.996;2023-12-20T05:58:46;98503.48;;;6.76;71.61
77381;BME280;66439;50.106;10.996;2023-12-20T06:00:49;98501.58;;;6.76;71.84
77381;BME280;66439;50.106;10.996;2023-12-20T06:02:52;98507.95;;;6.79;71.76
77381;BME280;66439;50.106;10.996;2023-12-20T06:04:55;98506.69;;;6.80;71.78
77381;BME280;66439;50.106;10.996;2023-12-20T06:06:58;98503.98;;;6.85;71.91
77381;BME280;66439;50.106;10.996;2023-12-20T06:09:01;98507.36;;;6.84;71.72
77381;BME280;66439;50.106;10.996;2023-12-20T06:11:05;98499.79;;;6.84;71.72
77381;BME280;66439;50.106;10.996;2023-12-20T06:13:08;98495.77;;;6.80;71.56
77381;BME280;66439;50.106;10.996;2023-12-20T06:15:11;98496.88;;;6.75;71.64
77381;BME280;66439;50.106;10.996;2023-12-20T06:17:13;98496.32;;;6.72;71.49
77381;BME280;66439;50.106;10.996;2023-12-20T06:19:16;98504.20;;;6.69;71.53
77381;BME280;66439;50.106;10.996;2023-12-20T06:21:19;98506.42;;;6.69;71.59
77381;BME280;66439;50.106;10.996;2023-12-20T06:23:22;98512.76;;;6.68;71.79
77381;BME280;66439;50.106;10.996;2023-12-20T06:25:25;98511.46;;;6.69;71.96
77381;BME280;66439;50.106;10.996;2023-12-20T06:27:28;98511.14;;;6.69;71.91
77381;BME280;66439;50.106;10.996;2023-12-20T06:29:31;98511.30;;;6.67;71.71
77381;BME280;66439;50.106;10.996;2023-12-20T06:31:34;98510.95;;;6.67;71.88
77381;BME280;66439;50.106;10.996;2023-12-20T06:33:38;98511.55;;;6.67;71.84
77381;BME280;66439;50.106;10.996;2023-12-20T06:35:43;98515.79;;;6.65;71.78
77381;BME280;66439;50.106;10.996;2023-12-20T06:37:45;98516.48;;;6.66;71.86
77381;BME280;66439;50.106;10.996;2023-12-20T06:39:49;98517.23;;;6.68;71.73
77381;BME280;66439;50.106;10.996;2023-12-20T06:41:52;98521.51;;;6.69;71.61
77381;BME280;66439;50.106;10.996;2023-12-20T06:43:55;98525.54;;;6.71;71.50
77381;BME280;66439;50.106;10.996;2023-12-20T06:45:59;98526.61;;;6.70;71.49
77381;BME280;66439;50.106;10.996;2023-12-20T06:48:03;98529.90;;;6.71;71.43
77381;BME280;66439;50.106;10.996;2023-12-20T06:50:06;98533.47;;;6.72;71.53
77381;BME280;66439;50.106;10.996;2023-12-20T06:52:10;98541.42;;;6.74;71.48
77381;BME280;66439;50.106;10.996;2023-12-20T06:54:13;98542.70;;;6.71;71.19
77381;BME280;66439;50.106;10.996;2023-12-20T06:56:16;98551.14;;;6.70;71.43
77381;BME280;66439;50.106;10.996;2023-12-20T06:58:21;98554.94;;;6.69;71.19
77381;BME280;66439;50.106;10.996;2023-12-20T07:00:24;98559.50;;;6.68;71.28
77381;BME280;66439;50.106;10.996;2023-12-20T07:02:26;98555.49;;;6.66;71.23
77381;BME280;66439;50.106;10.996;2023-12-20T07:04:32;98564.08;;;6.63;71.00
77381;BME280;66439;50.106;10.996;2023-12-20T07:06:35;98563.23;;;6.59;71.09
77381;BME280;66439;50.106;10.996;2023-12-20T07:08:39;98566.36;;;6.56;70.98
77381;BME280;66439;50.106;10.996;2023-12-20T07:10:42;98565.17;;;6.57;71.17
77381;BME280;66439;50.106;10.996;2023-12-20T07:12:45;98568.42;;;6.60;71.04
77381;BME280;66439;50.106;10.996;2023-12-20T07:14:47;98577.01;;;6.62;71.03
77381;BME280;66439;50.106;10.996;2023-12-20T07:16:50;98573.21;;;6.61;71.24
77381;BME280;66439;50.106;10.996;2023-12-20T07:18:52;98573.86;;;6.63;71.33
77381;BME280;66439;50.106;10.996;2023-12-20T07:20:59;98572.81;;;6.61;71.04
77381;BME280;66439;50.106;10.996;2023-12-20T07:23:02;98579.27;;;6.64;71.17
77381;BME280;66439;50.106;10.996;2023-12-20T07:25:05;98582.84;;;6.63;70.96
77381;BME280;66439;50.106;10.996;2023-12-20T07:27:08;98586.55;;;6.63;71.12
77381;BME280;66439;50.106;10.996;2023-12-20T07:29:11;98591.41;;;6.64;71.09
77381;BME280;66439;50.106;10.996;2023-12-20T07:31:15;98583.42;;;6.65;70.92
77381;BME280;66439;50.106;10.996;2023-12-20T07:33:18;98585.58;;;6.64;70.89
77381;BME280;66439;50.106;10.996;2023-12-20T07:35:23;98586.67;;;6.62;70.93
77381;BME280;66439;50.106;10.996;2023-12-20T07:37:26;98588.99;;;6.60;70.87
77381;BME280;66439;50.106;10.996;2023-12-20T07:39:28;98589.17;;;6.58;70.55
77381;BME280;66439;50.106;10.996;2023-12-20T07:41:31;98593.86;;;6.59;70.75
77381;BME280;66439;50.106;10.996;2023-12-20T07:43:34;98592.76;;;6.59;70.81
77381;BME280;66439;50.106;10.996;2023-12-20T07:45:36;98594.23;;;6.62;71.01
77381;BME280;66439;50.106;10.996;2023-12-20T07:47:44;98598.98;;;6.62;71.02
77381;BME280;66439;50.106;10.996;2023-12-20T07:49:48;98603.41;;;6.62;71.13
77381;BME280;66439;50.106;10.996;2023-12-20T07:51:51;98605.48;;;6.66;71.10
77381;BME280;66439;50.106;10.996;2023-12-20T07:53:54;98603.83;;;6.69;71.16
77381;BME280;66439;50.106;10.996;2023-12-20T07:55:56;98602.85;;;6.70;70.91
77381;BME280;66439;50.106;10.996;2023-12-20T07:57:59;98604.48;;;6.68;70.86
77381;BME280;66439;50.106;10.996;2023-12-20T08:00:03;98600.40;;;6.64;70.75
77381;BME280;66439;50.106;10.996;2023-12-20T08:02:06;98601.13;;;6.64;70.88
77381;BME280;66439;50.106;10.996;2023-12-20T08:04:13;98602.69;;;6.62;70.91
77381;BME280;66439;50.106;10.996;2023-12-20T08:06:17;98604.75;;;6.66;70.88
77381;BME280;66439;50.106;10.996;2023-12-20T08:08:20;98604.42;;;6.67;70.84
77381;BME280;66439;50.106;10.996;2023-12-20T08:10:22;98600.57;;;6.69;70.95
77381;BME280;66439;50.106;10.996;2023-12-20T08:12:25;98595.63;;;6.71;70.88
77381;BME280;66439;50.106;10.996;2023-12-20T08:14:30;98587.91;;;6.74;71.17
77381;BME280;66439;50.106;10.996;2023-12-20T08:16:34;98592.30;;;6.79;71.13
77381;BME280;66439;50.106;10.996;2023-12-20T08:18:36;98602.27;;;6.79;70.85
77381;BME280;66439;50.106;10.996;2023-12-20T08:20:39;98604.26;;;6.75;70.63
77381;BME280;66439;50.106;10.996;2023-12-20T08:22:42;98605.67;;;6.74;70.60
77381;BME280;66439;50.106;10.996;2023-12-20T08:24:45;98607.48;;;6.72;70.72
77381;BME280;66439;50.106;10.996;2023-12-20T08:26:48;98605.24;;;6.71;70.72
77381;BME280;66439;50.106;10.996;2023-12-20T08:28:51;98601.73;;;6.71;70.60
77381;BME280;66439;50.106;10.996;2023-12-20T08:30:53;98609.97;;;6.70;70.57
77381;BME280;66439;50.106;10.996;2023-12-20T08:32:59;98613.22;;;6.68;70.59
77381;BME280;66439;50.106;10.996;2023-12-20T08:35:02;98617.29;;;6.72;70.70
77381;BME280;66439;50.106;10.996;2023-12-20T08:37:05;98616.34;;;6.76;70.87
77381;BME280;66439;50.106;10.996;2023-12-20T08:39:08;98618.80;;;6.81;70.83
77381;BME280;66439;50.106;10.996;2023-12-20T08:41:10;98619.48;;;6.87;71.04
77381;BME280;66439;50.106;10.996;2023-12-20T08:43:13;98616.71;;;6.91;70.85
77381;BME280;66439;50.106;10.996;2023-12-20T08:45:15;98625.23;;;6.92;70.78
77381;BME280;66439;50.106;10.996;2023-12-20T08:47:18;98623.29;;;6.89;70.71
77381;BME280;66439;50.106;10.996;2023-12-20T08:49:22;98634.20;;;6.91;70.61
77381;BME280;66439;50.106;10.996;2023-12-20T08:51:25;98643.81;;;6.91;70.40
77381;BME280;66439;50.106;10.996;2023-12-20T08:53:28;98646.66;;;6.90;70.23
77381;BME280;66439;50.106;10.996;2023-12-20T08:55:30;98647.91;;;6.89;70.30
77381;BME280;66439;50.106;10.996;2023-12-20T08:57:34;98649.40;;;6.92;70.32
77381;BME280;66439;50.106;10.996;2023-12-20T08:59:36;98648.05;;;6.91;70.17
77381;BME280;66439;50.106;10.996;2023-12-20T09:01:39;98649.30;;;6.90;69.99
77381;BME280;66439;50.106;10.996;2023-12-20T09:03:42;98652.17;;;6.91;70.18
77381;BME280;66439;50.106;10.996;2023-12-20T09:05:46;98656.77;;;6.92;70.13
77381;BME280;66439;50.106;10.996;2023-12-20T09:07:49;98652.91;;;6.94;70.05
77381;BME280;66439;50.106;10.996;2023-12-20T09:09:52;98647.17;;;6.95;69.97
77381;BME280;66439;50.106;10.996;2023-12-20T09:11:55;98646.94;;;6.98;70.21
77381;BME280;66439;50.106;10.996;2023-12-20T09:13:58;98643.92;;;7.00;70.10
77381;BME280;66439;50.106;10.996;2023-12-20T09:16:00;98641.08;;;7.02;70.28
77381;BME280;66439;50.106;10.996;2023-12-20T09:18:03;98647.31;;;7.05;69.88
77381;BME280;66439;50.106;10.996;2023-12-20T09:20:07;98642.59;;;7.06;70.05
77381;BME280;66439;50.106;10.996;2023-12-20T09:22:11;98637.27;;;7.06;69.82
77381;BME280;66439;50.106;10.996;2023-12-20T09:24:14;98637.65;;;7.05;69.53
77381;BME280;66439;50.106;10.996;2023-12-20T09:26:18;98636.80;;;7.03;69.43
77381;BME280;66439;50.106;10.996;2023-12-20T09:28:20;98646.89;;;7.01;69.49
77381;BME280;66439;50.106;10.996;2023-12-20T09:30:23;98650.92;;;7.01;69.47
77381;BME280;66439;50.106;10.996;2023-12-20T09:32:30;98653.60;;;7.02;69.56
77381;BME280;66439;50.106;10.996;2023-12-20T09:34:32;98652.84;;;7.01;69.31
77381;BME280;66439;50.106;10.996;2023-12-20T09:36:36;98654.88;;;7.00;69.40
77381;BME280;66439;50.106;10.996;2023-12-20T09:38:40;98651.77;;;6.98;69.29
77381;BME280;66439;50.106;10.996;2023-12-20T09:40:43;98659.89;;;6.98;69.16
77381;BME280;66439;50.106;10.996;2023-12-20T09:44:57;98659.16;;;7.01;69.20
77381;BME280;66439;50.106;10.996;2023-12-20T09:47:03;98664.63;;;7.04;69.30
77381;BME280;66439;50.106;10.996;2023-12-20T09:49:06;98669.81;;;7.05;69.20
77381;BME280;66439;50.106;10.996;2023-12-20T09:51:09;98666.77;;;7.07;69.03
77381;BME280;66439;50.106;10.996;2023-12-20T09:53:15;98662.29;;;7.08;69.02
77381;BME280;66439;50.106;10.996;2023-12-20T09:55:19;98660.54;;;7.12;69.16
77381;BME280;66439;50.106;10.996;2023-12-20T09:57:22;98660.15;;;7.13;68.90
77381;BME280;66439;50.106;10.996;2023-12-20T09:59:25;98660.78;;;7.13;68.59
77381;BME280;66439;50.106;10.996;2023-12-20T10:01:28;98653.27;;;7.10;68.54
77381;BME280;66439;50.106;10.996;2023-12-20T10:03:32;98650.33;;;7.11;68.65
77381;BME280;66439;50.106;10.996;2023-12-20T10:05:35;98642.40;;;7.10;68.38
77381;BME280;66439;50.106;10.996;2023-12-20T10:07:38;98640.41;;;7.07;68.49
77381;BME280;66439;50.106;10.996;2023-12-20T10:09:42;98636.62;;;7.06;68.53
77381;BME280;66439;50.106;10.996;2023-12-20T10:11:44;98637.48;;;7.05;68.42
77381;BME280;66439;50.106;10.996;2023-12-20T10:13:48;98633.17;;;7.04;68.62
77381;BME280;66439;50.106;10.996;2023-12-20T10:15:50;98636.49;;;7.06;68.43
77381;BME280;66439;50.106;10.996;2023-12-20T10:17:53;98632.36;;;7.06;68.53
77381;BME280;66439;50.106;10.996;2023-12-20T10:20:02;98634.48;;;7.10;68.75
77381;BME280;66439;50.106;10.996;2023-12-20T10:22:05;98633.22;;;7.12;68.78
77381;BME280;66439;50.106;10.996;2023-12-20T10:24:08;98634.41;;;7.12;68.90
77381;BME280;66439;50.106;10.996;2023-12-20T10:26:19;98628.70;;;7.13;68.69
77381;BME280;66439;50.106;10.996;2023-12-20T10:28:22;98629.46;;;7.16;68.75
77381;BME280;66439;50.106;10.996;2023-12-20T10:30:27;98623.39;;;7.16;68.65
77381;BME280;66439;50.106;10.996;2023-12-20T10:32:30;98623.19;;;7.16;68.31
77381;BME280;66439;50.106;10.996;2023-12-20T10:34:33;98614.59;;;7.14;68.37
77381;BME280;66439;50.106;10.996;2023-12-20T10:36:37;98614.02;;;7.15;68.38
77381;BME280;66439;50.106;10.996;2023-12-20T10:38:42;98617.33;;;7.14;68.10
77381;BME280;66439;50.106;10.996;2023-12-20T10:40:45;98613.27;;;7.09;68.11
77381;BME280;66439;50.106;10.996;2023-12-20T10:42:50;98605.82;;;7.07;68.16
77381;BME280;66439;50.106;10.996;2023-12-20T10:44:52;98600.38;;;7.07;68.17
77381;BME280;66439;50.106;10.996;2023-12-20T10:46:56;98596.95;;;7.06;67.98
77381;BME280;66439;50.106;10.996;2023-12-20T10:49:04;98593.08;;;7.11;68.49
77381;BME280;66439;50.106;10.996;2023-12-20T10:51:08;98592.04;;;7.13;68.33
77381;BME280;66439;50.106;10.996;2023-12-20T10:53:11;98582.48;;;7.13;68.39
77381;BME280;66439;50.106;10.996;2023-12-20T10:55:14;98576.16;;;7.14;68.24
77381;BME280;66439;50.106;10.996;2023-12-20T10:57:18;98588.80;;;7.15;68.01